createdAt,value
2022-09-25T00:00:15.430Z,102031.88
2022-09-25T00:02:19.227Z,102029.28
2022-09-25T00:04:22.898Z,102031.06
2022-09-25T00:06:28.585Z,102027.63
2022-09-25T00:08:32.176Z,102032.06
2022-09-25T00:10:42.452Z,102033.81
2022-09-25T00:12:46.149Z,102034.78
2022-09-25T00:14:51.172Z,102037.53
2022-09-25T00:16:54.780Z,102041.09
2022-09-25T00:19:16.639Z,102040.28
2022-09-25T00:21:20.448Z,102042.94
2022-09-25T00:23:25.837Z,102040.34
2022-09-25T00:25:29.615Z,102046.50
2022-09-25T00:27:34.685Z,102050.09
2022-09-25T00:29:40.062Z,102044.81
2022-09-25T00:31:44.130Z,102045.78
2022-09-25T00:33:47.661Z,102044.13
2022-09-25T00:35:51.291Z,102044.13
2022-09-25T00:37:55.001Z,102051.16
2022-09-25T00:39:58.697Z,102053.88
2022-09-25T00:42:02.164Z,102049.56
2022-09-25T00:44:57.772Z,102058.50
2022-09-25T00:47:01.639Z,102056.91
2022-09-25T00:49:08.619Z,102051.78
2022-09-25T00:51:12.758Z,102058.97
2022-09-25T00:53:21.816Z,102054.63
2022-09-25T00:55:25.352Z,102051.16
2022-09-25T00:57:32.254Z,102051.34
2022-09-25T00:59:42.614Z,102056.78
2022-09-25T01:01:46.360Z,102053.63
2022-09-25T01:03:49.839Z,102051.25
2022-09-25T01:05:55.411Z,102050.31
2022-09-25T01:08:02.543Z,102042.50
2022-09-25T01:10:08.438Z,102042.44
2022-09-25T01:12:11.753Z,102043.25
2022-09-25T01:14:17.511Z,102045.84
2022-09-25T01:16:33.079Z,102049.22
2022-09-25T01:18:45.419Z,102037.84
2022-09-25T01:21:05.416Z,102033.53
2022-09-25T01:23:21.781Z,102034.28
2022-09-25T01:25:35.901Z,102026.22
2022-09-25T01:27:48.522Z,102029.63
2022-09-25T01:29:58.729Z,102023.41
2022-09-25T01:32:07.880Z,102022.53
2022-09-25T01:34:20.222Z,102017.44
2022-09-25T01:36:30.055Z,102009.56
2022-09-25T01:38:38.294Z,102001.59
2022-09-25T01:40:49.062Z,102000.59
2022-09-25T01:42:56.798Z,101992.69
2022-09-25T01:45:05.715Z,101990.94
2022-09-25T01:47:12.191Z,101995.41
2022-09-25T01:49:20.913Z,101980.50
2022-09-25T01:51:28.706Z,101977.84
2022-09-25T01:53:39.402Z,101980.50
2022-09-25T01:55:48.094Z,101983.13
2022-09-25T01:57:58.099Z,101976.97
2022-09-25T02:00:08.802Z,101980.56
2022-09-25T02:02:23.197Z,101976.13
2022-09-25T02:04:31.856Z,101978.69
2022-09-25T02:06:38.368Z,101985.72
2022-09-25T02:08:46.226Z,101978.63
2022-09-25T02:10:53.915Z,101990.03
2022-09-25T02:13:03.976Z,101986.34
2022-09-25T02:15:12.021Z,101979.06
2022-09-25T02:17:36.686Z,101966.59
2022-09-25T02:19:58.026Z,101964.63
2022-09-25T02:22:06.492Z,101969.72
2022-09-25T02:24:20.236Z,101971.41
2022-09-25T02:26:28.147Z,101969.50
2022-09-25T02:28:31.468Z,101965.75
2022-09-25T02:30:36.337Z,101966.53
2022-09-25T02:32:39.658Z,101965.53
2022-09-25T02:34:43.315Z,101972.56
2022-09-25T02:36:46.874Z,101970.66
2022-09-25T02:38:51.616Z,101973.16
2022-09-25T02:40:58.992Z,101968.72
2022-09-25T02:43:11.635Z,101972.19
2022-09-25T02:45:28.700Z,101967.69
2022-09-25T02:47:36.948Z,101969.34
2022-09-25T02:49:52.201Z,101966.75
2022-09-25T02:52:03.931Z,101969.34
2022-09-25T02:54:12.729Z,101964.03
2022-09-25T02:56:23.770Z,101963.06
2022-09-25T02:58:31.619Z,101958.66
2022-09-25T03:00:36.795Z,101958.69
2022-09-25T03:02:48.102Z,101966.75
2022-09-25T03:04:56.031Z,101957.09
2022-09-25T03:06:59.974Z,101953.53
2022-09-25T03:09:03.408Z,101952.59
2022-09-25T03:11:09.052Z,101940.22
2022-09-25T03:13:17.687Z,101936.81
2022-09-25T03:15:23.941Z,101931.59
2022-09-25T03:17:27.820Z,101937.72
2022-09-25T03:19:33.659Z,101933.28
2022-09-25T03:21:37.145Z,101927.97
2022-09-25T03:23:41.183Z,101923.56
2022-09-25T03:25:49.717Z,101916.63
2022-09-25T03:27:54.765Z,101920.25
2022-09-25T03:29:58.339Z,101915.94
2022-09-25T03:32:02.302Z,101911.66
2022-09-25T03:34:07.071Z,101911.91
2022-09-25T03:36:14.741Z,101910.31
2022-09-25T03:38:18.224Z,101913.13
2022-09-25T03:40:21.924Z,101912.34
2022-09-25T03:42:28.612Z,101911.63
2022-09-25T03:44:32.455Z,101905.53
2022-09-25T03:46:36.954Z,101902.94
2022-09-25T03:48:41.516Z,101903.97
2022-09-25T03:50:46.334Z,101901.47
2022-09-25T03:52:51.320Z,101910.44
2022-09-25T03:54:54.895Z,101902.59
2022-09-25T03:56:58.576Z,101901.75
2022-09-25T03:59:02.311Z,101897.44
2022-09-25T04:01:06.214Z,101900.16
2022-09-25T04:03:09.843Z,101899.31
2022-09-25T04:05:13.474Z,101903.84
2022-09-25T04:07:17.128Z,101901.28
2022-09-25T04:09:22.332Z,101897.78
2022-09-25T04:11:26.637Z,101894.38
2022-09-25T04:13:31.967Z,101895.22
2022-09-25T04:15:35.762Z,101897.94
2022-09-25T04:17:39.472Z,101900.56
2022-09-25T04:19:43.090Z,101895.28
2022-09-25T04:21:46.577Z,101904.19
2022-09-25T04:24:04.118Z,101900.88
2022-09-25T04:26:10.962Z,101898.22
2022-09-25T04:28:14.558Z,101904.41
2022-09-25T04:30:18.212Z,101903.56
2022-09-25T04:32:39.261Z,101901.84
2022-09-25T04:34:42.998Z,101897.53
2022-09-25T04:36:46.895Z,101892.38
2022-09-25T04:38:50.423Z,101898.50
2022-09-25T04:40:54.062Z,101892.41
2022-09-25T04:43:00.062Z,101889.78
2022-09-25T04:45:03.682Z,101900.41
2022-09-25T04:47:07.258Z,101895.13
2022-09-25T04:49:11.667Z,101899.59
2022-09-25T04:51:15.289Z,101909.38
2022-09-25T04:53:19.234Z,101909.44
2022-09-25T04:55:24.507Z,101909.50
2022-09-25T04:57:53.931Z,101906.94
2022-09-25T04:59:53.311Z,101904.50
2022-09-25T05:01:57.524Z,101905.47
2022-09-25T05:04:06.307Z,101908.19
2022-09-25T05:06:12.285Z,101910.75
2022-09-25T05:08:15.951Z,101905.47
2022-09-25T05:10:20.384Z,101912.50
2022-09-25T05:12:23.966Z,101916.84
2022-09-25T05:14:27.539Z,101916.81
2022-09-25T05:16:32.658Z,101911.50
2022-09-25T05:18:36.467Z,101917.59
2022-09-25T05:20:40.239Z,101910.63
2022-09-25T05:22:43.976Z,101915.91
2022-09-25T05:24:47.542Z,101918.47
2022-09-25T05:26:51.043Z,101922.75
2022-09-25T05:28:54.718Z,101912.88
2022-09-25T05:31:01.481Z,101900.41
2022-09-25T05:33:06.573Z,101920.53
2022-09-25T05:35:10.265Z,101902.81
2022-09-25T05:37:13.972Z,101912.34
2022-09-25T05:39:17.397Z,101912.19
2022-09-25T05:41:21.023Z,101904.06
2022-09-25T05:43:25.621Z,101896.94
2022-09-25T05:45:29.224Z,101904.63
2022-09-25T05:47:33.141Z,101904.47
2022-09-25T05:49:38.279Z,101907.94
2022-09-25T05:51:41.883Z,101906.03
2022-09-25T05:53:45.729Z,101913.91
2022-09-25T05:55:52.485Z,101906.75
2022-09-25T05:58:00.840Z,101915.44
2022-09-25T06:00:05.620Z,101911.75
2022-09-25T06:02:15.491Z,101906.19
2022-09-25T06:04:19.078Z,101899.13
2022-09-25T06:06:27.489Z,101906.09
2022-09-25T06:08:32.491Z,101900.72
2022-09-25T06:10:36.776Z,101900.72
2022-09-25T06:12:40.321Z,101901.50
2022-09-25T06:14:44.311Z,101906.72
2022-09-25T06:16:50.056Z,101899.59
2022-09-25T06:18:53.774Z,101896.91
2022-09-25T06:21:02.931Z,101898.63
2022-09-25T06:23:08.005Z,101898.56
2022-09-25T06:25:12.218Z,101904.53
2022-09-25T06:27:15.813Z,101902.66
2022-09-25T06:29:19.317Z,101906.03
2022-09-25T06:31:23.130Z,101911.25
2022-09-25T06:33:26.653Z,101907.69
2022-09-25T06:35:30.571Z,101905.91
2022-09-25T06:37:34.117Z,101904.97
2022-09-25T06:39:39.372Z,101904.00
2022-09-25T06:41:42.944Z,101906.44
2022-09-25T06:43:50.379Z,101914.22
2022-09-25T06:45:54.119Z,101910.59
2022-09-25T06:48:03.213Z,101904.31
2022-09-25T06:50:08.542Z,101901.53
2022-09-25T06:52:12.711Z,101896.13
2022-09-25T06:54:16.375Z,101898.63
2022-09-25T06:56:21.890Z,101897.56
2022-09-25T06:58:27.005Z,101896.56
2022-09-25T07:00:30.674Z,101889.47
2022-09-25T07:02:51.586Z,101893.78
2022-09-25T07:04:56.571Z,101890.06
2022-09-25T07:07:01.986Z,101881.13
2022-09-25T07:09:06.149Z,101881.00
2022-09-25T07:11:09.732Z,101877.34
2022-09-25T07:13:15.169Z,101872.06
2022-09-25T07:15:18.844Z,101876.34
2022-09-25T07:17:22.522Z,101878.84
2022-09-25T07:19:27.881Z,101870.84
2022-09-25T07:21:32.544Z,101867.28
2022-09-25T07:23:36.600Z,101867.19
2022-09-25T07:25:40.293Z,101857.41
2022-09-25T07:27:43.967Z,101859.97
2022-09-25T07:29:49.064Z,101861.69
2022-09-25T07:31:52.836Z,101858.97
2022-09-25T07:33:56.513Z,101859.75
2022-09-25T07:36:03.148Z,101853.38
2022-09-25T07:38:06.862Z,101847.97
2022-09-25T07:40:14.950Z,101847.91
2022-09-25T07:42:18.660Z,101846.00
2022-09-25T07:44:28.952Z,101845.00
2022-09-25T07:46:35.626Z,101855.53
2022-09-25T07:48:39.392Z,101854.63
2022-09-25T07:50:43.088Z,101844.81
2022-09-25T07:52:46.681Z,101856.19
2022-09-25T07:54:50.302Z,101848.97
2022-09-25T07:56:53.884Z,101853.09
2022-09-25T07:58:57.456Z,101849.47
2022-09-25T08:01:02.622Z,101839.63
2022-09-25T08:03:08.525Z,101840.28
2022-09-25T08:05:13.233Z,101849.75
2022-09-25T08:07:16.895Z,101853.13
2022-09-25T08:09:21.613Z,101852.03
2022-09-25T08:11:25.394Z,101858.91
2022-09-25T08:13:29.445Z,101857.03
2022-09-25T08:15:33.586Z,101854.16
2022-09-25T08:17:37.351Z,101853.16
2022-09-25T08:19:43.043Z,101846.84
2022-09-25T08:21:47.014Z,101852.94
2022-09-25T08:23:52.905Z,101847.47
2022-09-25T08:25:57.703Z,101847.25
2022-09-25T08:28:01.824Z,101841.78
2022-09-25T08:30:06.103Z,101834.47
2022-09-25T08:32:09.742Z,101848.50
2022-09-25T08:34:39.455Z,101838.78
2022-09-25T08:36:40.044Z,101836.88
2022-09-25T08:38:43.875Z,101830.66
2022-09-25T08:40:56.603Z,101830.56
2022-09-25T08:43:01.214Z,101830.41
2022-09-25T08:45:26.547Z,101828.56
2022-09-25T08:47:48.585Z,101826.53
2022-09-25T08:50:01.732Z,101826.28
2022-09-25T08:52:10.251Z,101821.69
2022-09-25T08:54:20.734Z,101813.56
2022-09-25T08:56:25.897Z,101825.72
2022-09-25T08:58:33.795Z,101821.19
2022-09-25T09:00:37.848Z,101820.09
2022-09-25T09:02:45.740Z,101816.28
2022-09-25T09:04:52.679Z,101813.28
2022-09-25T09:07:25.128Z,101806.78
2022-09-25T09:09:29.500Z,101796.88
2022-09-25T09:11:37.810Z,101795.06
2022-09-25T09:13:47.763Z,101786.19
2022-09-25T09:15:56.028Z,101780.78
2022-09-25T09:18:03.781Z,101784.28
2022-09-25T09:20:17.521Z,101777.19
2022-09-25T09:22:27.871Z,101775.38
2022-09-25T09:24:51.808Z,101767.25
2022-09-25T09:27:22.525Z,101768.78
2022-09-25T09:30:03.067Z,101768.66
2022-09-25T09:32:37.680Z,101760.50
2022-09-25T09:35:06.376Z,101757.84
2022-09-25T09:37:19.489Z,101762.97
2022-09-25T09:39:29.475Z,101771.84
2022-09-25T09:41:50.921Z,101747.75
2022-09-25T09:44:08.781Z,101745.72
2022-09-25T09:46:22.218Z,101741.94
2022-09-25T09:48:34.545Z,101738.25
2022-09-25T09:50:52.128Z,101735.25
2022-09-25T09:53:01.676Z,101721.53
2022-09-25T09:55:20.743Z,101720.31
2022-09-25T09:57:28.210Z,101716.41
2022-09-25T09:59:40.270Z,101714.16
2022-09-25T10:01:46.665Z,101712.94
2022-09-25T10:03:57.492Z,101709.09
2022-09-25T10:06:04.494Z,101704.19
2022-09-25T10:08:08.251Z,101714.25
2022-09-25T10:10:15.833Z,101712.00
2022-09-25T10:12:30.397Z,101707.00
2022-09-25T10:14:39.251Z,101699.22
2022-09-25T10:16:43.348Z,101692.59
2022-09-25T10:18:53.962Z,101707.13
2022-09-25T10:21:01.648Z,101706.00
2022-09-25T10:23:09.887Z,101702.56
2022-09-25T10:25:36.594Z,101697.44
2022-09-25T10:27:46.408Z,101697.63
2022-09-25T10:30:03.119Z,101688.88
2022-09-25T10:32:07.525Z,101690.59
2022-09-25T10:34:24.192Z,101687.75
2022-09-25T10:36:38.692Z,101675.97
2022-09-25T10:38:53.461Z,101678.25
2022-09-25T10:41:04.921Z,101671.41
2022-09-25T10:43:20.691Z,101652.41
2022-09-25T10:45:31.839Z,101655.50
2022-09-25T10:47:52.825Z,101638.09
2022-09-25T10:50:14.492Z,101629.72
2022-09-25T10:52:20.090Z,101634.09
2022-09-25T10:54:23.755Z,101640.25
2022-09-25T10:56:36.014Z,101633.44
2022-09-25T10:58:44.773Z,101635.06
2022-09-25T11:00:58.023Z,101634.84
2022-09-25T11:03:03.321Z,101638.56
2022-09-25T11:05:09.190Z,101648.38
2022-09-25T11:07:21.087Z,101647.19
2022-09-25T11:09:26.683Z,101649.41
2022-09-25T11:11:30.838Z,101638.31
2022-09-25T11:13:42.215Z,101627.31
2022-09-25T11:15:52.057Z,101634.09
2022-09-25T11:17:57.253Z,101632.72
2022-09-25T11:20:29.801Z,101633.44
2022-09-25T11:22:38.702Z,101623.53
2022-09-25T11:25:01.268Z,101642.09
2022-09-25T11:27:12.323Z,101638.16
2022-09-25T11:29:24.452Z,101641.69
2022-09-25T11:31:37.131Z,101648.66
2022-09-25T11:33:47.073Z,101649.38
2022-09-25T11:35:54.765Z,101648.81
2022-09-25T11:38:09.724Z,101636.56
2022-09-25T11:40:48.952Z,101627.81
2022-09-25T11:42:58.138Z,101623.31
2022-09-25T11:45:08.926Z,101611.38
2022-09-25T11:47:19.671Z,101609.00
2022-09-25T11:49:25.822Z,101598.31
2022-09-25T11:51:45.781Z,101595.78
2022-09-25T11:54:17.865Z,101581.06
2022-09-25T11:56:33.003Z,101584.94
2022-09-25T11:58:59.112Z,101575.75
2022-09-25T12:01:14.337Z,101568.41
2022-09-25T12:03:39.210Z,101557.63
2022-09-25T12:05:59.207Z,101560.28
2022-09-25T12:08:19.631Z,101561.03
2022-09-25T12:10:36.713Z,101558.81
2022-09-25T12:12:49.371Z,101560.84
2022-09-25T12:15:01.170Z,101560.19
2022-09-25T12:17:12.606Z,101567.88
2022-09-25T12:19:30.620Z,101564.25
2022-09-25T12:21:42.034Z,101560.50
2022-09-25T12:23:52.403Z,101557.81
2022-09-25T12:26:20.830Z,101560.81
2022-09-25T12:28:47.926Z,101557.13
2022-09-25T12:31:05.253Z,101553.25
2022-09-25T12:33:25.637Z,101551.13
2022-09-25T12:35:41.365Z,101544.50
2022-09-25T12:37:47.874Z,101545.69
2022-09-25T12:39:56.038Z,101543.78
2022-09-25T12:42:08.102Z,101532.03
2022-09-25T12:44:22.412Z,101521.16
2022-09-25T12:46:35.608Z,101522.22
2022-09-25T12:48:46.423Z,101510.50
2022-09-25T12:51:04.989Z,101510.91
2022-09-25T12:53:23.574Z,101495.53
2022-09-25T12:55:33.789Z,101489.38
2022-09-25T12:57:45.946Z,101481.13
2022-09-25T12:59:56.878Z,101480.94
2022-09-25T13:02:07.342Z,101477.09
2022-09-25T13:04:37.722Z,101465.44
2022-09-25T13:06:52.069Z,101476.34
2022-09-25T13:08:58.974Z,101484.78
2022-09-25T13:11:08.502Z,101476.16
2022-09-25T13:13:19.494Z,101477.22
2022-09-25T13:15:25.415Z,101474.78
2022-09-25T13:17:28.919Z,101460.44
2022-09-25T13:19:35.480Z,101463.13
2022-09-25T13:21:42.260Z,101462.28
2022-09-25T13:23:51.670Z,101453.63
2022-09-25T13:26:01.106Z,101458.22
2022-09-25T13:28:09.201Z,101443.19
2022-09-25T13:30:23.041Z,101440.53
2022-09-25T13:32:32.262Z,101432.28
2022-09-25T13:34:39.680Z,101424.22
2022-09-25T13:36:48.394Z,101425.16
2022-09-25T13:39:15.238Z,101425.59
2022-09-25T13:41:18.809Z,101417.09
2022-09-25T13:43:25.186Z,101424.31
2022-09-25T13:45:33.749Z,101413.44
2022-09-25T13:47:56.724Z,101422.09
2022-09-25T13:50:18.823Z,101401.47
2022-09-25T13:52:31.098Z,101394.34
2022-09-25T13:54:36.236Z,101383.47
2022-09-25T13:56:49.544Z,101375.34
2022-09-25T13:59:26.746Z,101374.94
2022-09-25T14:01:39.247Z,101370.84
2022-09-25T14:03:46.305Z,101380.22
2022-09-25T14:05:50.671Z,101372.84
2022-09-25T14:08:01.919Z,101374.56
2022-09-25T14:10:13.019Z,101368.75
2022-09-25T14:12:25.090Z,101366.94
2022-09-25T14:14:33.371Z,101372.19
2022-09-25T14:16:43.668Z,101374.09
2022-09-25T14:18:54.210Z,101350.31
2022-09-25T14:21:00.718Z,101347.78
2022-09-25T14:23:08.517Z,101334.56
2022-09-25T14:25:35.155Z,101323.38
2022-09-25T14:27:38.704Z,101318.16
2022-09-25T14:29:43.282Z,101333.28
2022-09-25T14:32:02.506Z,101331.91
2022-09-25T14:34:19.966Z,101335.13
2022-09-25T14:36:36.979Z,101338.97
2022-09-25T14:38:56.080Z,101347.97
2022-09-25T14:41:23.735Z,101344.53
2022-09-25T14:44:00.947Z,101346.69
2022-09-25T14:46:11.929Z,101343.00
2022-09-25T14:48:19.444Z,101340.66
2022-09-25T14:50:25.465Z,101338.41
2022-09-25T14:52:32.279Z,101335.97
2022-09-25T14:54:40.307Z,101325.44
2022-09-25T14:56:48.721Z,101319.22
2022-09-25T14:58:57.983Z,101315.97
2022-09-25T15:01:18.217Z,101301.88
2022-09-25T15:03:26.807Z,101291.22
2022-09-25T15:05:33.224Z,101287.72
2022-09-25T15:07:44.248Z,101278.72
2022-09-25T15:09:49.473Z,101274.28
2022-09-25T15:11:56.237Z,101274.88
2022-09-25T15:14:11.787Z,101268.38
2022-09-25T15:16:38.607Z,101258.34
2022-09-25T15:18:45.767Z,101259.09
2022-09-25T15:20:50.426Z,101262.72
2022-09-25T15:22:57.525Z,101259.31
2022-09-25T15:25:05.871Z,101259.53
2022-09-25T15:27:17.222Z,101257.81
2022-09-25T15:29:23.528Z,101252.84
2022-09-25T15:31:27.654Z,101270.66
2022-09-25T15:33:34.269Z,101247.00
2022-09-25T15:35:37.869Z,101240.06
2022-09-25T15:37:41.475Z,101241.03
2022-09-25T15:39:45.974Z,101230.38
2022-09-25T15:41:49.899Z,101229.53
2022-09-25T15:44:13.826Z,101226.00
2022-09-25T15:46:37.020Z,101220.56
2022-09-25T15:48:42.931Z,101199.91
2022-09-25T15:50:47.027Z,101191.78
2022-09-25T15:52:52.794Z,101175.44
2022-09-25T15:55:02.313Z,101170.75
2022-09-25T15:57:11.475Z,101172.34
2022-09-25T15:59:21.626Z,101171.47
2022-09-25T16:01:46.486Z,101165.31
2022-09-25T16:04:11.496Z,101162.66
2022-09-25T16:06:17.189Z,101140.56
2022-09-25T16:08:32.290Z,101139.09
2022-09-25T16:10:36.115Z,101139.09
2022-09-25T16:12:47.704Z,101140.81
2022-09-25T16:14:53.415Z,101134.66
2022-09-25T16:16:58.112Z,101119.50
2022-09-25T16:19:22.673Z,101117.06
2022-09-25T16:21:30.208Z,101102.03
2022-09-25T16:23:34.037Z,101105.66
2022-09-25T16:25:39.268Z,101100.56
2022-09-25T16:27:46.952Z,101089.06
2022-09-25T16:29:50.969Z,101085.66
2022-09-25T16:32:04.015Z,101073.41
2022-09-25T16:34:11.320Z,101070.75
2022-09-25T16:36:19.004Z,101078.84
2022-09-25T16:38:30.531Z,101068.19
2022-09-25T16:40:39.696Z,101064.69
2022-09-25T16:42:43.707Z,101063.81
2022-09-25T16:44:50.636Z,101061.28
2022-09-25T16:47:17.293Z,101043.72
2022-09-25T16:49:21.265Z,101032.47
2022-09-25T16:51:27.688Z,101029.03
2022-09-25T16:53:31.811Z,101025.66
2022-09-25T16:55:38.459Z,101022.25
2022-09-25T16:57:46.136Z,101011.94
2022-09-25T16:59:50.788Z,101011.09
2022-09-25T17:01:57.446Z,101001.63
2022-09-25T17:04:02.810Z,101009.72
2022-09-25T17:06:07.108Z,101011.63
2022-09-25T17:08:17.692Z,101001.09
2022-09-25T17:10:23.930Z,101007.38
2022-09-25T17:12:29.307Z,101011.00
2022-09-25T17:14:32.995Z,101015.50
2022-09-25T17:16:36.864Z,101022.72
2022-09-25T17:18:41.458Z,101006.75
2022-09-25T17:20:47.796Z,100995.28
2022-09-25T17:22:52.109Z,100983.88
2022-09-25T17:24:55.845Z,100990.19
2022-09-25T17:26:59.566Z,100980.47
2022-09-25T17:29:03.080Z,100986.75
2022-09-25T17:31:07.852Z,100986.75
2022-09-25T17:33:17.670Z,100979.00
2022-09-25T17:35:35.240Z,100957.94
2022-09-25T17:37:40.411Z,100957.19
2022-09-25T17:39:44.020Z,100959.97
2022-09-25T17:41:48.907Z,100970.00
2022-09-25T17:43:53.037Z,100972.91
2022-09-25T17:45:58.538Z,100981.09
2022-09-25T17:48:03.128Z,100963.56
2022-09-25T17:50:07.855Z,100967.28
2022-09-25T17:52:22.870Z,100954.94
2022-09-25T17:54:31.417Z,100928.31
2022-09-25T17:56:36.344Z,100907.03
2022-09-25T17:58:41.058Z,100912.34
2022-09-25T18:00:45.969Z,100911.63
2022-09-25T18:02:49.757Z,100926.66
2022-09-25T18:04:53.368Z,100949.72
2022-09-25T18:06:57.021Z,100943.69
2022-09-25T18:09:01.035Z,100941.88
2022-09-25T18:11:06.409Z,100946.66
2022-09-25T18:13:15.065Z,100940.63
2022-09-25T18:15:19.000Z,100932.84
2022-09-25T18:17:22.633Z,100904.75
2022-09-25T18:19:43.893Z,100907.66
2022-09-25T18:22:04.644Z,100917.69
2022-09-25T18:24:08.400Z,100937.38
2022-09-25T18:26:13.580Z,100935.91
2022-09-25T18:28:20.482Z,100943.13
2022-09-25T18:30:25.040Z,100920.16
2022-09-25T18:32:31.252Z,100911.44
2022-09-25T18:34:36.453Z,100897.31
2022-09-25T18:36:40.509Z,100893.78
2022-09-25T18:38:44.289Z,100886.75
2022-09-25T18:40:48.171Z,100877.84
2022-09-25T18:42:53.780Z,100874.22
2022-09-25T18:44:57.488Z,100881.25
2022-09-25T18:47:02.302Z,100872.28
2022-09-25T18:49:06.136Z,100870.38
2022-09-25T18:51:09.909Z,100867.59
2022-09-25T18:53:13.727Z,100860.44
2022-09-25T18:55:17.780Z,100847.06
2022-09-25T18:57:21.954Z,100839.94
2022-09-25T18:59:28.386Z,100829.28
2022-09-25T19:01:32.551Z,100836.31
2022-09-25T19:03:40.779Z,100836.31
2022-09-25T19:05:45.446Z,100844.28
2022-09-25T19:07:49.412Z,100839.94
2022-09-25T19:09:53.485Z,100839.81
2022-09-25T19:11:57.752Z,100833.53
2022-09-25T19:14:04.914Z,100823.72
2022-09-25T19:16:11.266Z,100810.44
2022-09-25T19:18:15.216Z,100824.59
2022-09-25T19:20:19.127Z,100805.09
2022-09-25T19:22:24.438Z,100807.78
2022-09-25T19:24:28.231Z,100814.03
2022-09-25T19:26:32.076Z,100793.75
2022-09-25T19:28:36.865Z,100792.88
2022-09-25T19:30:40.748Z,100802.56
2022-09-25T19:32:45.929Z,100802.69
2022-09-25T19:34:50.288Z,100797.25
2022-09-25T19:36:54.121Z,100797.25
2022-09-25T19:38:58.845Z,100803.41
2022-09-25T19:41:03.414Z,100805.09
2022-09-25T19:43:08.314Z,100792.69
2022-09-25T19:45:14.273Z,100791.81
2022-09-25T19:47:18.566Z,100780.44
2022-09-25T19:49:24.032Z,100775.13
2022-09-25T19:51:27.971Z,100756.72
2022-09-25T19:53:31.717Z,100735.44
2022-09-25T19:55:37.399Z,100717.06
2022-09-25T19:57:40.982Z,100704.00
2022-09-25T19:59:44.711Z,100698.81
2022-09-25T20:01:48.665Z,100686.59
2022-09-25T20:03:52.984Z,100669.06
2022-09-25T20:05:58.726Z,100674.50
2022-09-25T20:08:02.726Z,100672.78
2022-09-25T20:10:07.334Z,100668.44
2022-09-25T20:12:11.100Z,100667.59
2022-09-25T20:14:15.005Z,100666.84
2022-09-25T20:16:21.252Z,100647.41
2022-09-25T20:18:25.036Z,100648.38
2022-09-25T20:20:29.959Z,100638.72
2022-09-25T20:22:35.142Z,100635.31
2022-09-25T20:24:39.039Z,100638.94
2022-09-25T20:26:42.596Z,100649.69
2022-09-25T20:28:47.639Z,100649.81
2022-09-25T20:30:51.600Z,100645.44
2022-09-25T20:32:55.413Z,100647.16
2022-09-25T20:34:59.479Z,100649.09
2022-09-25T20:37:04.007Z,100615.59
2022-09-25T20:39:10.020Z,100629.03
2022-09-25T20:41:15.293Z,100626.56
2022-09-25T20:43:19.486Z,100631.88
2022-09-25T20:45:23.470Z,100631.88
2022-09-25T20:47:29.687Z,100637.19
2022-09-25T20:49:33.449Z,100626.56
2022-09-25T20:51:37.782Z,100610.63
2022-09-25T20:53:41.627Z,100614.03
2022-09-25T20:55:46.803Z,100589.16
2022-09-25T20:57:50.902Z,100603.16
2022-09-25T20:59:57.345Z,100607.38
2022-09-25T21:02:02.482Z,100587.81
2022-09-25T21:04:08.845Z,100584.09
2022-09-25T21:06:15.160Z,100590.13
2022-09-25T21:08:18.950Z,100593.53
2022-09-25T21:10:23.557Z,100588.09
2022-09-25T21:12:29.717Z,100586.13
2022-09-25T21:14:35.154Z,100578.78
2022-09-25T21:16:38.824Z,100575.25
2022-09-25T21:18:43.688Z,100561.00
2022-09-25T21:20:47.694Z,100571.50
2022-09-25T21:22:52.615Z,100558.34
2022-09-25T21:24:56.347Z,100558.59
2022-09-25T21:27:00.440Z,100552.44
2022-09-25T21:29:06.690Z,100537.56
2022-09-25T21:31:13.260Z,100546.63
2022-09-25T21:33:17.150Z,100529.94
2022-09-25T21:35:21.425Z,100539.09
2022-09-25T21:37:25.357Z,100528.72
2022-09-25T21:39:33.155Z,100528.84
2022-09-25T21:41:37.789Z,100505.28
2022-09-25T21:43:42.415Z,100500.94
2022-09-25T21:45:47.859Z,100487.66
2022-09-25T21:47:51.708Z,100468.09
2022-09-25T21:49:56.887Z,100460.13
2022-09-25T21:52:00.882Z,100454.78
2022-09-25T21:54:07.737Z,100439.69
2022-09-25T21:56:13.686Z,100424.56
2022-09-25T21:58:17.573Z,100412.97
2022-09-25T22:00:21.552Z,100397.78
2022-09-25T22:02:26.701Z,100393.28
2022-09-25T22:04:30.380Z,100383.47
2022-09-25T22:06:39.937Z,100382.41
2022-09-25T22:08:46.107Z,100369.84
2022-09-25T22:10:56.506Z,100354.47
2022-09-25T22:13:00.578Z,100359.66
2022-09-25T22:15:05.187Z,100362.94
2022-09-25T22:17:09.226Z,100363.53
2022-09-25T22:19:17.240Z,100347.59
2022-09-25T22:21:23.706Z,100339.47
2022-09-25T22:23:27.719Z,100344.53
2022-09-25T22:25:31.598Z,100321.34
2022-09-25T22:27:35.245Z,100327.34
2022-09-25T22:29:39.282Z,100313.81
2022-09-25T22:31:44.555Z,100316.38
2022-09-25T22:33:49.874Z,100317.06
2022-09-25T22:36:01.592Z,100308.81
2022-09-25T22:38:05.648Z,100320.19
2022-09-25T22:40:10.189Z,100310.25
2022-09-25T22:42:14.157Z,100318.84
2022-09-25T22:44:18.213Z,100308.06
2022-09-25T22:46:23.609Z,100311.34
2022-09-25T22:48:27.446Z,100299.69
2022-09-25T22:50:31.393Z,100282.63
2022-09-25T22:52:37.652Z,100268.25
2022-09-25T22:54:41.234Z,100265.34
2022-09-25T22:56:45.409Z,100262.56
2022-09-25T22:58:51.043Z,100258.78
2022-09-25T23:00:54.707Z,100244.34
2022-09-25T23:02:58.332Z,100238.94
2022-09-25T23:05:06.370Z,100231.66
2022-09-25T23:07:10.703Z,100236.97
2022-09-25T23:09:17.000Z,100239.63
2022-09-25T23:11:22.190Z,100229.13
2022-09-25T23:13:26.278Z,100219.31
2022-09-25T23:15:30.483Z,100213.28
2022-09-25T23:17:34.796Z,100219.56
2022-09-25T23:19:38.334Z,100202.78
2022-09-25T23:21:42.646Z,100208.09
2022-09-25T23:23:46.550Z,100208.25
2022-09-25T23:25:51.674Z,100199.25
2022-09-25T23:27:55.236Z,100193.94
2022-09-25T23:29:59.826Z,100192.28
2022-09-25T23:32:08.291Z,100185.97
2022-09-25T23:34:12.493Z,100174.34
2022-09-25T23:36:18.483Z,100177.00
2022-09-25T23:38:22.168Z,100179.41
2022-09-25T23:40:25.682Z,100185.44
2022-09-25T23:42:31.010Z,100185.16
2022-09-25T23:44:34.971Z,100192.06
2022-09-25T23:46:40.827Z,100191.09
2022-09-25T23:48:44.977Z,100197.22
2022-09-25T23:50:50.227Z,100210.53
2022-09-25T23:52:54.011Z,100205.22
2022-09-25T23:54:58.030Z,100206.91
2022-09-25T23:57:01.807Z,100197.22
2022-09-25T23:59:07.048Z,100181.28
